Time;durP1;ratioP1;P1;durP2;ratioP2;P2;SDS_P1;SDS_P2;PMS_P1;PMS_P2;Temp;Humidity;BMP_temperature;BMP_pressure;BME280_temperature;BME280_humidity;BME280_pressure;Samples;Min_cycle;Max_cycle;Signal;HPM_P1;HPM_P2
2021/01/10 00:00:37;;;;;;;425.10;151.10;;;11.60;99.90;;;;;;5010125;28;20433;-58
2021/01/10 00:03:05;;;;;;;403.60;143.82;;;11.60;99.90;;;;;;4977011;28;20971;-57
2021/01/10 00:05:32;;;;;;;;;;;11.60;99.90;;;;;;4993336;28;20426;-58
2021/01/10 00:07:59;;;;;;;;;;;11.60;99.90;;;;;;5013394;28;20434;-58
2021/01/10 00:10:27;;;;;;;;;;;11.60;99.90;;;;;;4997912;28;19925;-58
2021/01/10 00:12:56;;;;;;;409.73;135.60;;;11.60;99.90;;;;;;4997793;28;20513;-58
2021/01/10 00:15:23;;;;;;;399.63;131.03;;;11.60;99.90;;;;;;4997389;28;21216;-58
2021/01/10 00:17:50;;;;;;;380.70;125.35;;;11.60;99.90;;;;;;4974895;28;20463;-58
2021/01/10 00:20:18;;;;;;;380.10;118.70;;;11.60;99.90;;;;;;5019362;28;20429;-58
2021/01/10 00:22:49;;;;;;;375.42;115.28;;;11.60;99.90;;;;;;4997244;28;20431;-57
2021/01/10 00:25:16;;;;;;;388.50;122.70;;;11.60;99.90;;;;;;5022235;28;20426;-58
2021/01/10 00:27:44;;;;;;;428.45;146.30;;;11.60;99.90;;;;;;4994921;28;20424;-58
2021/01/10 00:30:14;;;;;;;390.67;123.60;;;11.60;99.90;;;;;;5007547;28;20497;-57
2021/01/10 00:32:46;;;;;;;413.33;138.13;;;11.60;99.90;;;;;;5007711;28;20431;-57
2021/01/10 00:35:13;;;;;;;363.95;113.05;;;11.60;99.90;;;;;;4992485;28;20464;-58
2021/01/10 00:37:44;;;;;;;383.58;121.05;;;11.60;99.90;;;;;;4994930;28;20860;-58
2021/01/10 00:40:11;;;;;;;374.33;126.40;;;11.50;99.90;;;;;;4999605;28;20477;-58
2021/01/10 00:42:40;;;;;;;378.02;116.63;;;11.60;99.90;;;;;;5025056;28;20434;-58
2021/01/10 00:45:09;;;;;;;365.20;115.55;;;11.60;99.90;;;;;;5012748;28;20434;-57
2021/01/10 00:47:37;;;;;;;365.90;113.55;;;11.50;99.90;;;;;;5012774;28;20431;-58
2021/01/10 00:50:04;;;;;;;371.67;115.82;;;11.50;99.90;;;;;;4990837;28;20435;-58
2021/01/10 00:52:32;;;;;;;370.50;112.70;;;11.60;99.90;;;;;;5024762;28;20441;-58
2021/01/10 00:54:59;;;;;;;377.90;113.35;;;11.60;99.90;;;;;;5021962;28;20435;-58
2021/01/10 00:57:26;;;;;;;375.38;109.18;;;11.50;99.90;;;;;;5011194;28;20491;-58
2021/01/10 00:59:53;;;;;;;378.70;116.20;;;11.50;99.90;;;;;;5023797;28;20434;-58
2021/01/10 01:02:21;;;;;;;373.00;109.73;;;11.50;99.90;;;;;;4997351;28;20497;-57
2021/01/10 01:04:48;;;;;;;371.75;110.43;;;11.50;99.90;;;;;;5011213;28;20427;-57
2021/01/10 01:07:16;;;;;;;387.80;118.55;;;11.50;99.90;;;;;;4990499;28;20443;-58
2021/01/10 01:09:43;;;;;;;380.60;114.35;;;11.50;99.90;;;;;;4994412;28;20922;-58
2021/01/10 01:12:10;;;;;;;373.93;116.73;;;11.50;99.90;;;;;;4980510;28;20427;-58
2021/01/10 01:14:37;;;;;;;328.30;103.73;;;11.50;99.90;;;;;;4978385;28;20504;-58
2021/01/10 01:17:07;;;;;;;318.00;96.70;;;11.60;99.90;;;;;;5008496;28;20432;-57
2021/01/10 01:19:35;;;;;;;297.52;89.82;;;11.50;99.90;;;;;;5000273;28;21147;-58
2021/01/10 01:22:02;;;;;;;314.88;90.55;;;11.50;99.90;;;;;;4993115;28;20429;-57
2021/01/10 01:24:29;;;;;;;331.13;109.68;;;11.50;99.90;;;;;;4994020;28;20438;-58
2021/01/10 01:26:56;;;;;;;377.08;106.32;;;11.50;99.90;;;;;;5012736;28;20500;-57
2021/01/10 01:29:23;;;;;;;376.45;110.53;;;11.50;99.90;;;;;;5008270;28;20458;-57
2021/01/10 01:31:50;;;;;;;453.70;171.35;;;11.50;99.90;;;;;;5024769;28;20428;-57
2021/01/10 01:34:17;;;;;;;334.10;109.03;;;11.50;99.90;;;;;;4991663;28;21148;-57
2021/01/10 01:36:45;;;;;;;337.35;105.30;;;11.50;99.90;;;;;;4982308;28;20439;-58
2021/01/10 01:39:13;;;;;;;364.30;109.85;;;11.50;99.90;;;;;;5009053;28;20458;-57
2021/01/10 01:41:40;;;;;;;364.02;112.22;;;11.50;99.90;;;;;;5008032;28;20434;-58
2021/01/10 01:44:07;;;;;;;362.48;109.07;;;11.50;99.90;;;;;;5011800;28;20416;-58
2021/01/10 01:46:35;;;;;;;337.40;100.25;;;11.50;99.90;;;;;;4996833;28;20431;-58
2021/01/10 01:49:05;;;;;;;4.22;3.50;;;11.50;99.90;;;;;;5007965;28;20467;-58
2021/01/10 01:51:32;;;;;;;;;;;11.50;99.90;;;;;;5028138;28;20285;-58
2021/01/10 01:54:00;;;;;;;;;;;11.50;99.90;;;;;;5030144;28;20936;-58
2021/01/10 01:56:27;;;;;;;;;;;11.50;99.90;;;;;;5012417;28;19933;-58
2021/01/10 01:59:00;;;;;;;;;;;11.50;99.90;;;;;;5009971;28;19933;-58
2021/01/10 02:01:28;;;;;;;;;;;11.50;99.90;;;;;;5029841;28;19929;-58
2021/01/10 02:03:59;;;;;;;;;;;11.60;99.90;;;;;;4999987;28;19980;-57
2021/01/10 02:06:28;;;;;;;;;;;11.60;99.90;;;;;;5017136;28;20305;-57
2021/01/10 02:08:59;;;;;;;;;;;11.60;99.90;;;;;;5016360;28;20009;-58
2021/01/10 02:11:28;;;;;;;;;;;11.60;99.90;;;;;;5014961;28;20594;-57
2021/01/10 02:13:54;;;;;;;;;;;11.60;99.90;;;;;;5009709;28;19937;-58
2021/01/10 02:16:21;;;;;;;;;;;11.60;99.90;;;;;;5017520;28;19937;-58
2021/01/10 02:18:48;;;;;;;;;;;11.60;99.90;;;;;;5012833;28;20380;-58
2021/01/10 02:21:16;;;;;;;;;;;11.60;99.90;;;;;;5010118;28;19929;-57
2021/01/10 02:23:44;;;;;;;;;;;11.50;99.90;;;;;;4995108;28;19933;-58
2021/01/10 02:26:12;;;;;;;;;;;11.60;99.90;;;;;;4999273;28;19932;-58
2021/01/10 02:28:38;;;;;;;;;;;11.60;99.90;;;;;;4998368;28;19951;-58
2021/01/10 02:31:06;;;;;;;;;;;11.60;99.90;;;;;;5017075;28;20294;-58
2021/01/10 02:33:36;;;;;;;;;;;11.60;99.90;;;;;;5012694;28;19947;-57
2021/01/10 02:36:06;;;;;;;;;;;11.60;99.90;;;;;;5016854;28;19929;-58
2021/01/10 02:38:47;;;;;;;;;;;11.60;99.90;;;;;;5043602;28;19979;-57
2021/01/10 02:41:21;;;;;;;;;;;11.50;99.90;;;;;;5014878;28;19929;-58
2021/01/10 02:43:55;;;;;;;;;;;11.60;99.90;;;;;;5014337;28;20325;-58
2021/01/10 02:46:21;;;;;;;;;;;11.60;99.90;;;;;;5013551;28;19925;-58
2021/01/10 02:48:48;;;;;;;;;;;11.60;99.90;;;;;;5014332;28;20906;-58
2021/01/10 02:51:15;;;;;;;;;;;11.60;99.90;;;;;;5012795;28;20515;-58
2021/01/10 02:53:41;;;;;;;;;;;11.60;99.90;;;;;;5022115;28;20246;-57
2021/01/10 02:56:08;;;;;;;;;;;11.60;99.90;;;;;;5011442;28;19928;-58
2021/01/10 02:58:38;;;;;;;;;;;11.60;99.90;;;;;;5006422;28;19936;-58
2021/01/10 03:07:11;;;;;;;;;;;11.60;99.90;;;;;;5002223;28;19939;-57
2021/01/10 03:09:38;;;;;;;;;;;11.60;99.90;;;;;;5011648;28;19943;-58
2021/01/10 03:12:14;;;;;;;;;;;11.60;99.90;;;;;;5014964;28;19924;-57
2021/01/10 03:14:43;;;;;;;466.17;210.00;;;11.60;99.90;;;;;;4992279;28;20438;-58
2021/01/10 03:17:18;;;;;;;481.73;242.88;;;11.60;99.90;;;;;;4995173;28;20440;-58
2021/01/10 03:19:45;;;;;;;456.90;186.45;;;11.60;99.90;;;;;;5007882;28;20431;-58
2021/01/10 03:22:12;;;;;;;472.48;228.50;;;11.60;99.90;;;;;;5008460;28;20434;-57
2021/01/10 03:24:40;;;;;;;392.40;161.80;;;11.60;99.90;;;;;;5009894;28;20229;-58
2021/01/10 03:27:07;;;;;;;445.42;164.23;;;11.60;99.90;;;;;;5008596;28;20859;-57
2021/01/10 03:29:34;;;;;;;422.77;150.10;;;11.60;99.90;;;;;;5024106;28;20430;-58
2021/01/10 03:32:02;;;;;;;439.43;187.53;;;11.50;99.90;;;;;;4992805;28;21361;-58
2021/01/10 03:34:29;;;;;;;427.15;145.13;;;11.50;99.90;;;;;;5006569;28;20422;-58
2021/01/10 03:36:56;;;;;;;433.95;149.73;;;11.50;99.90;;;;;;5005537;28;20495;-58
2021/01/10 03:39:23;;;;;;;;;;;11.50;99.90;;;;;;4991661;28;20442;-58
2021/01/10 03:41:50;;;;;;;430.83;157.68;;;11.50;99.90;;;;;;4992017;28;25114;-57
2021/01/10 03:44:17;;;;;;;451.70;218.10;;;11.50;99.90;;;;;;4977646;28;20434;-58
2021/01/10 03:46:45;;;;;;;453.65;184.23;;;11.50;99.90;;;;;;4981169;28;21147;-58
2021/01/10 03:49:13;;;;;;;469.65;203.30;;;11.50;99.90;;;;;;5035737;28;20442;-57
2021/01/10 03:51:40;;;;;;;465.80;206.45;;;11.50;99.90;;;;;;5005703;28;20426;-58
2021/01/10 03:54:08;;;;;;;465.58;202.80;;;11.50;99.90;;;;;;5008456;28;20434;-58
2021/01/10 03:56:35;;;;;;;449.08;173.90;;;11.50;99.90;;;;;;5018423;28;20915;-58
2021/01/10 03:59:02;;;;;;;459.90;190.50;;;11.50;99.90;;;;;;4977812;28;20461;-58
2021/01/10 04:01:29;;;;;;;449.23;174.90;;;11.50;99.90;;;;;;5007526;28;20431;-58
2021/01/10 04:03:56;;;;;;;355.60;141.25;;;11.50;99.90;;;;;;5005759;28;20427;-58
2021/01/10 04:06:24;;;;;;;85.53;64.63;;;11.50;99.90;;;;;;4997557;28;20266;-57
2021/01/10 04:08:53;;;;;;;31.17;28.43;;;11.50;99.90;;;;;;4982734;28;20231;-58
2021/01/10 04:11:21;;;;;;;3.60;2.70;;;11.50;99.90;;;;;;5008100;28;20304;-58
2021/01/10 04:13:49;;;;;;;3.43;2.90;;;11.50;99.90;;;;;;4995412;28;20796;-58
2021/01/10 04:16:15;;;;;;;12.70;6.23;;;11.50;99.90;;;;;;5022402;28;20233;-58
2021/01/10 04:18:42;;;;;;;452.87;175.27;;;11.50;99.90;;;;;;5010872;28;20284;-58
2021/01/10 04:21:09;;;;;;;423.88;135.68;;;11.50;99.90;;;;;;5011287;28;20441;-57
2021/01/10 04:23:37;;;;;;;446.90;171.50;;;11.50;99.90;;;;;;5006403;28;20441;-58
2021/01/10 04:26:05;;;;;;;113.78;42.95;;;11.50;99.90;;;;;;4975788;28;20464;-58
2021/01/10 04:28:32;;;;;;;16.23;9.60;;;11.50;99.90;;;;;;4980231;28;20593;-57
2021/01/10 04:31:00;;;;;;;416.40;145.13;;;11.50;99.90;;;;;;5004288;28;20540;-57
2021/01/10 04:33:28;;;;;;;387.15;124.45;;;11.50;99.90;;;;;;5019377;28;20881;-58
2021/01/10 04:35:55;;;;;;;418.02;138.35;;;11.50;99.90;;;;;;5020792;28;20449;-58
2021/01/10 04:38:22;;;;;;;413.73;144.40;;;11.50;99.90;;;;;;4995933;28;20981;-57
2021/01/10 04:40:51;;;;;;;377.33;151.50;;;11.50;99.90;;;;;;4991483;28;20440;-58
2021/01/10 04:43:18;;;;;;;448.63;182.70;;;11.50;99.90;;;;;;5008713;28;20430;-58
2021/01/10 04:45:46;;;;;;;432.10;171.50;;;11.50;99.90;;;;;;4990380;28;20509;-58
2021/01/10 04:48:13;;;;;;;421.93;142.63;;;11.50;99.90;;;;;;5011131;28;20535;-58
2021/01/10 04:50:40;;;;;;;415.95;135.43;;;11.50;99.90;;;;;;5012937;28;20810;-58
2021/01/10 04:53:09;;;;;;;416.75;142.98;;;11.50;99.90;;;;;;4973361;28;20939;-57
2021/01/10 04:55:38;;;;;;;406.65;136.52;;;11.50;99.90;;;;;;5019254;28;20435;-57
2021/01/10 04:58:08;;;;;;;6.70;6.13;;;11.50;99.90;;;;;;4989960;28;20430;-57
2021/01/10 05:00:35;;;;;;;3.83;3.17;;;11.50;99.90;;;;;;4994942;28;20226;-58
2021/01/10 05:03:07;;;;;;;3.60;2.90;;;11.50;99.90;;;;;;5022435;28;20235;-58
2021/01/10 05:05:39;;;;;;;453.27;149.73;;;11.50;99.90;;;;;;4996276;28;20260;-58
2021/01/10 05:08:08;;;;;;;507.98;279.10;;;11.50;99.90;;;;;;4973896;28;20443;-57
2021/01/10 05:10:35;;;;;;;422.70;379.90;;;11.50;99.90;;;;;;5019238;28;20430;-58
2021/01/10 05:13:03;;;;;;;398.23;340.17;;;11.50;99.90;;;;;;4982470;28;20504;-58
2021/01/10 05:15:31;;;;;;;506.40;306.45;;;11.50;99.90;;;;;;5005523;28;20438;-58
2021/01/10 05:17:59;;;;;;;488.42;253.23;;;11.50;99.90;;;;;;5005877;28;21984;-57
2021/01/10 05:20:27;;;;;;;481.92;237.43;;;11.50;99.90;;;;;;4996670;28;20435;-57
2021/01/10 05:22:54;;;;;;;470.45;214.65;;;11.50;99.90;;;;;;5020808;28;20443;-57
2021/01/10 05:25:22;;;;;;;465.67;197.75;;;11.50;99.90;;;;;;5007236;28;20432;-58
2021/01/10 05:27:53;;;;;;;472.10;220.73;;;11.50;99.90;;;;;;5006300;28;20435;-58
2021/01/10 05:30:27;;;;;;;474.65;222.95;;;11.50;99.90;;;;;;5040623;28;20442;-58
2021/01/10 05:33:07;;;;;;;464.48;201.18;;;11.50;99.90;;;;;;5007980;28;23675;-58
2021/01/10 05:35:50;;;;;;;464.55;209.75;;;11.50;99.90;;;;;;5009805;28;20449;-57
2021/01/10 05:38:29;;;;;;;473.48;222.20;;;11.50;99.90;;;;;;5012576;28;20434;-58
2021/01/10 05:40:57;;;;;;;458.15;191.95;;;11.40;99.90;;;;;;4990907;28;20425;-58
2021/01/10 05:43:25;;;;;;;456.75;185.15;;;11.50;99.90;;;;;;4997571;28;20477;-57
2021/01/10 05:45:53;;;;;;;436.45;160.13;;;11.50;99.90;;;;;;4995146;28;20950;-58
2021/01/10 05:48:21;;;;;;;440.90;165.10;;;11.50;99.90;;;;;;5012440;28;20444;-58
2021/01/10 05:50:50;;;;;;;430.02;155.68;;;11.50;99.90;;;;;;5009005;28;20937;-59
2021/01/10 05:53:21;;;;;;;441.20;160.15;;;11.50;99.90;;;;;;5028421;28;20434;-57
2021/01/10 05:55:53;;;;;;;442.87;171.83;;;11.50;99.90;;;;;;5014543;28;20431;-57
2021/01/10 05:58:21;;;;;;;433.70;165.05;;;11.50;99.90;;;;;;5013075;28;20436;-57
2021/01/10 06:00:51;;;;;;;437.77;172.82;;;11.50;99.90;;;;;;4992576;28;20435;-57
2021/01/10 06:03:20;;;;;;;427.80;152.50;;;11.40;99.90;;;;;;5026382;28;20451;-57
2021/01/10 06:05:55;;;;;;;427.70;152.63;;;11.50;99.90;;;;;;5015844;28;20961;-57
2021/01/10 06:08:29;;;;;;;429.10;146.47;;;11.40;99.90;;;;;;5036794;28;20485;-58
2021/01/10 06:11:25;;;;;;;426.53;154.53;;;11.40;99.90;;;;;;5007851;28;20433;-58
2021/01/10 06:13:56;;;;;;;447.38;177.90;;;11.50;99.90;;;;;;5010001;28;20429;-57
2021/01/10 06:16:26;;;;;;;447.05;166.05;;;11.50;99.90;;;;;;5012244;28;20415;-58
2021/01/10 06:18:56;;;;;;;449.30;169.20;;;11.50;99.90;;;;;;5006129;28;21013;-57
2021/01/10 06:21:26;;;;;;;450.73;178.43;;;11.50;99.90;;;;;;5008632;28;20436;-57
2021/01/10 06:23:57;;;;;;;445.98;174.43;;;11.50;99.90;;;;;;5009061;28;20427;-57
2021/01/10 06:26:25;;;;;;;438.05;152.65;;;11.50;99.90;;;;;;5024268;28;20502;-57
2021/01/10 06:28:58;;;;;;;445.42;164.95;;;11.50;99.90;;;;;;4996851;28;20481;-57
2021/01/10 06:31:30;;;;;;;430.60;149.67;;;11.50;99.90;;;;;;4975506;28;25107;-57
2021/01/10 06:34:08;;;;;;;425.67;154.67;;;11.50;99.90;;;;;;4996857;28;20431;-57
2021/01/10 06:36:36;;;;;;;411.90;140.83;;;11.50;99.90;;;;;;5008673;28;20420;-58
2021/01/10 06:39:07;;;;;;;411.50;138.60;;;11.50;99.90;;;;;;5010765;28;20433;-58
2021/01/10 06:41:43;;;;;;;;;;;11.50;99.90;;;;;;5023607;28;20496;-58
2021/01/10 06:44:10;;;;;;;430.15;160.25;;;11.50;99.90;;;;;;5009314;28;20467;-58
2021/01/10 06:46:37;;;;;;;432.98;160.40;;;11.50;99.90;;;;;;5006705;28;20428;-58
2021/01/10 06:49:05;;;;;;;440.65;182.15;;;11.50;99.90;;;;;;5003874;28;20435;-57
2021/01/10 06:51:36;;;;;;;442.65;170.05;;;11.50;99.90;;;;;;4976073;28;20525;-57
2021/01/10 06:54:05;;;;;;;442.30;168.18;;;11.50;99.90;;;;;;5005015;28;20437;-58
2021/01/10 06:56:33;;;;;;;441.92;175.63;;;11.50;99.90;;;;;;5005107;28;20457;-57
2021/01/10 06:59:05;;;;;;;433.35;164.85;;;11.50;99.90;;;;;;5001648;28;21122;-57
2021/01/10 07:02:00;;;;;;;412.92;147.23;;;11.50;99.90;;;;;;5001505;28;20502;-58
2021/01/10 07:04:58;;;;;;;389.80;131.13;;;11.50;99.90;;;;;;5004477;28;20435;-58
2021/01/10 07:07:42;;;;;;;422.15;145.75;;;11.50;99.90;;;;;;5003611;28;20795;-57
2021/01/10 07:10:25;;;;;;;422.80;149.32;;;11.50;99.90;;;;;;5013033;28;20435;-58
2021/01/10 07:12:52;;;;;;;390.20;127.50;;;11.50;99.90;;;;;;5011609;28;20438;-57
2021/01/10 07:15:27;;;;;;;421.60;144.55;;;11.50;99.90;;;;;;5003607;28;20535;-58
2021/01/10 07:18:04;;;;;;;426.88;160.45;;;11.50;99.90;;;;;;4994680;28;20434;-58
2021/01/10 07:20:36;;;;;;;406.20;157.35;;;11.50;99.90;;;;;;5011436;28;20479;-58
2021/01/10 07:23:21;;;;;;;;;;;11.50;99.90;;;;;;5024005;28;20441;-58
2021/01/10 07:25:49;;;;;;;413.05;143.63;;;11.50;99.90;;;;;;5041050;28;20809;-57
2021/01/10 07:28:35;;;;;;;;;;;11.50;99.90;;;;;;4988842;28;20526;-58
2021/01/10 07:31:05;;;;;;;;;;;11.50;99.90;;;;;;5011233;28;25101;-58
2021/01/10 07:33:32;;;;;;;388.40;159.37;;;11.50;99.90;;;;;;5007657;28;25095;-57
2021/01/10 07:35:59;;;;;;;;;;;11.50;99.90;;;;;;5003587;28;20438;-58
2021/01/10 07:38:26;;;;;;;;;;;11.40;99.90;;;;;;5023141;28;25192;-58
2021/01/10 07:40:54;;;;;;;;;;;11.40;99.90;;;;;;5010203;28;25110;-57
2021/01/10 07:43:21;;;;;;;415.80;140.80;;;11.50;99.90;;;;;;4994109;28;25106;-58
2021/01/10 07:45:48;;;;;;;;;;;11.40;99.90;;;;;;5006299;28;20442;-57
2021/01/10 07:48:30;;;;;;;412.85;172.63;;;11.40;99.90;;;;;;4991994;28;25158;-57
2021/01/10 07:51:15;;;;;;;418.13;147.95;;;11.40;99.90;;;;;;5013818;28;20972;-57
2021/01/10 07:53:47;;;;;;;388.73;129.68;;;11.50;99.90;;;;;;5012138;28;20968;-58
2021/01/10 07:56:18;;;;;;;367.53;119.50;;;11.40;99.90;;;;;;4993049;28;20450;-57
2021/01/10 07:58:45;;;;;;;380.40;119.45;;;11.50;99.90;;;;;;4977816;28;20426;-57
2021/01/10 08:01:12;;;;;;;;;;;11.40;99.90;;;;;;5016656;28;20439;-58
2021/01/10 08:03:39;;;;;;;;;;;11.40;99.90;;;;;;4996101;28;20628;-58
2021/01/10 08:06:06;;;;;;;;;;;11.40;99.90;;;;;;5018040;28;25116;-58
2021/01/10 08:08:44;;;;;;;;;;;11.50;99.90;;;;;;5011832;28;25170;-57
2021/01/10 08:11:11;;;;;;;;;;;11.50;99.90;;;;;;5013844;28;20426;-58
2021/01/10 08:13:39;;;;;;;;;;;11.50;99.90;;;;;;5018542;28;20628;-58
2021/01/10 08:16:07;;;;;;;;;;;11.40;99.90;;;;;;5020977;28;20542;-58
2021/01/10 08:18:36;;;;;;;;;;;11.50;99.90;;;;;;5016116;28;25165;-58
2021/01/10 08:21:04;;;;;;;;;;;11.50;99.90;;;;;;5024346;28;25104;-58
2021/01/10 08:23:31;;;;;;;;;;;11.50;99.90;;;;;;5013550;28;25063;-58
2021/01/10 08:26:02;;;;;;;;;;;11.60;99.90;;;;;;4997523;28;25081;-58
2021/01/10 08:28:33;;;;;;;393.40;180.90;;;11.60;99.90;;;;;;5012205;28;25107;-58
2021/01/10 08:31:02;;;;;;;;;;;11.60;99.90;;;;;;5008354;28;20437;-58
2021/01/10 08:33:29;;;;;;;;;;;11.60;99.90;;;;;;5006718;28;25185;-58
2021/01/10 08:36:07;;;;;;;;;;;11.60;99.90;;;;;;4997727;28;25067;-58
2021/01/10 08:38:33;;;;;;;;;;;11.60;99.90;;;;;;5040698;28;25106;-58
2021/01/10 08:41:00;;;;;;;;;;;11.50;99.90;;;;;;5008320;28;20446;-57
2021/01/10 08:43:27;;;;;;;;;;;11.60;99.90;;;;;;4992269;28;25081;-59
2021/01/10 08:45:54;;;;;;;;;;;11.60;99.90;;;;;;4992035;28;25076;-57
2021/01/10 08:48:21;;;;;;;;;;;11.60;99.90;;;;;;4992538;28;25154;-58
2021/01/10 08:50:48;;;;;;;;;;;11.60;99.90;;;;;;5021882;28;20444;-58
2021/01/10 08:53:14;;;;;;;;;;;11.60;99.90;;;;;;4998913;28;19929;-57
2021/01/10 08:55:43;;;;;;;414.50;162.20;;;11.50;99.90;;;;;;5011632;28;20413;-57
2021/01/10 08:58:10;;;;;;;;;;;11.60;99.90;;;;;;4977457;28;20450;-57
2021/01/10 09:00:39;;;;;;;;;;;11.60;99.90;;;;;;5023738;28;20517;-58
2021/01/10 09:03:13;;;;;;;;;;;11.60;99.90;;;;;;5018889;28;25083;-58
2021/01/10 09:05:41;;;;;;;;;;;11.60;99.90;;;;;;5017044;28;25078;-57
2021/01/10 09:08:11;;;;;;;;;;;11.60;99.90;;;;;;4990373;28;20440;-58
2021/01/10 09:10:42;;;;;;;;;;;11.60;99.90;;;;;;5011587;28;20443;-58
2021/01/10 09:13:11;;;;;;;;;;;11.50;99.90;;;;;;5013313;28;25073;-58
2021/01/10 09:15:40;;;;;;;;;;;11.50;99.90;;;;;;5014381;28;25065;-58
2021/01/10 09:18:08;;;;;;;;;;;11.60;99.90;;;;;;5014807;28;19948;-57
2021/01/10 09:20:36;;;;;;;;;;;11.50;99.90;;;;;;5024734;28;25110;-58
2021/01/10 09:23:07;;;;;;;;;;;11.50;99.90;;;;;;5041947;28;25077;-58
2021/01/10 09:25:34;;;;;;;;;;;11.50;99.90;;;;;;5020112;28;19925;-58
2021/01/10 09:28:11;;;;;;;;;;;11.60;99.90;;;;;;5032055;28;25055;-58
2021/01/10 09:30:38;;;;;;;;;;;11.50;99.90;;;;;;5012937;28;20503;-57
2021/01/10 09:33:07;;;;;;;412.40;134.60;;;11.50;99.90;;;;;;5001147;28;25105;-57
2021/01/10 09:35:41;;;;;;;397.90;128.80;;;11.50;99.90;;;;;;4998384;28;25087;-58
2021/01/10 09:38:11;;;;;;;415.15;136.43;;;11.50;99.90;;;;;;4982732;28;20986;-58
2021/01/10 09:40:38;;;;;;;;;;;11.60;99.90;;;;;;5014637;28;20430;-57
2021/01/10 09:43:05;;;;;;;405.90;147.60;;;11.50;99.90;;;;;;5027035;28;20436;-57
2021/01/10 09:45:38;;;;;;;409.37;126.20;;;11.50;99.90;;;;;;4990248;28;21042;-57
2021/01/10 09:48:13;;;;;;;411.10;130.95;;;11.50;99.90;;;;;;4993969;28;20519;-58
2021/01/10 09:50:40;;;;;;;418.98;130.18;;;11.60;99.90;;;;;;5028684;28;20441;-58
2021/01/10 09:53:07;;;;;;;;;;;11.60;99.90;;;;;;5012128;28;20435;-58
2021/01/10 09:55:46;;;;;;;372.48;126.45;;;11.60;99.90;;;;;;5043498;28;20848;-57
2021/01/10 09:58:16;;;;;;;353.35;112.50;;;11.60;99.90;;;;;;5027118;28;20441;-58
2021/01/10 10:00:56;;;;;;;367.52;118.88;;;11.50;99.90;;;;;;5004962;28;20438;-58
2021/01/10 10:03:24;;;;;;;379.05;121.13;;;11.50;99.90;;;;;;4997966;28;20434;-58
2021/01/10 10:06:00;;;;;;;379.38;121.30;;;11.50;99.90;;;;;;5009468;28;20436;-58
2021/01/10 10:08:27;;;;;;;;;;;11.50;99.90;;;;;;5013047;28;20453;-58
2021/01/10 10:10:54;;;;;;;;;;;11.50;99.90;;;;;;5009288;28;25121;-58
2021/01/10 10:13:27;;;;;;;360.33;115.97;;;11.50;99.90;;;;;;5023820;28;20548;-58
2021/01/10 10:15:55;;;;;;;376.00;115.53;;;11.50;99.90;;;;;;5038720;28;20463;-58
2021/01/10 10:18:23;;;;;;;360.55;102.90;;;11.50;99.90;;;;;;5007371;28;20513;-58
2021/01/10 10:20:51;;;;;;;385.45;113.10;;;11.50;99.90;;;;;;5013706;28;20952;-59
2021/01/10 10:23:19;;;;;;;384.05;119.85;;;11.50;99.90;;;;;;5021138;28;20450;-58
2021/01/10 10:25:46;;;;;;;;;;;11.50;99.90;;;;;;5024890;28;20442;-58
2021/01/10 10:28:14;;;;;;;;;;;11.50;99.90;;;;;;4997129;28;20455;-58
2021/01/10 10:30:42;;;;;;;;;;;11.50;99.90;;;;;;5010947;28;20488;-58
2021/01/10 10:33:08;;;;;;;;;;;11.50;99.90;;;;;;5011745;28;20497;-58
2021/01/10 10:35:36;;;;;;;388.73;108.88;;;11.40;99.90;;;;;;5009690;28;20447;-58
2021/01/10 10:38:04;;;;;;;361.23;103.68;;;11.50;99.90;;;;;;4979468;28;20443;-57
2021/01/10 10:40:31;;;;;;;350.58;97.72;;;11.50;99.90;;;;;;5001463;28;20435;-57
2021/01/10 10:42:58;;;;;;;338.08;92.13;;;11.50;99.90;;;;;;4994517;28;20419;-58
2021/01/10 10:45:27;;;;;;;339.23;93.97;;;11.50;99.90;;;;;;4997733;28;20442;-58
2021/01/10 10:47:53;;;;;;;;;;;11.50;99.90;;;;;;5018774;28;20427;-58
2021/01/10 10:50:20;;;;;;;;;;;11.50;99.90;;;;;;4996250;28;20458;-58
2021/01/10 10:52:47;;;;;;;;;;;11.50;99.90;;;;;;4998842;28;20445;-58
2021/01/10 10:55:14;;;;;;;;;;;11.50;99.90;;;;;;4994571;28;25098;-58
2021/01/10 10:57:41;;;;;;;;;;;11.50;99.90;;;;;;5025887;28;20433;-57
2021/01/10 11:00:09;;;;;;;;;;;11.50;99.90;;;;;;5028305;28;25085;-58
2021/01/10 11:02:36;;;;;;;;;;;11.50;99.90;;;;;;4995120;28;20491;-59
2021/01/10 11:05:03;;;;;;;;;;;11.50;99.90;;;;;;5036235;28;25102;-58
2021/01/10 11:07:33;;;;;;;;;;;11.50;99.90;;;;;;4993142;28;25146;-58
2021/01/10 11:10:00;;;;;;;;;;;11.50;99.90;;;;;;5011056;28;20822;-58
2021/01/10 11:12:26;;;;;;;;;;;11.50;99.90;;;;;;5025370;28;25101;-58
2021/01/10 11:14:53;;;;;;;;;;;11.50;99.90;;;;;;5024630;28;25051;-58
2021/01/10 11:17:20;;;;;;;;;;;11.50;99.90;;;;;;5013436;28;25134;-58
2021/01/10 11:19:48;;;;;;;;;;;11.50;99.90;;;;;;5004767;28;20496;-58
2021/01/10 11:22:15;;;;;;;;;;;11.50;99.90;;;;;;4997414;28;21074;-58
2021/01/10 11:24:42;;;;;;;403.40;168.50;;;11.50;99.90;;;;;;5023477;28;25120;-58
2021/01/10 11:27:10;;;;;;;;;;;11.50;99.90;;;;;;5007932;28;25143;-58
2021/01/10 11:29:36;;;;;;;;;;;11.40;99.90;;;;;;4996164;28;25063;-58
2021/01/10 11:32:03;;;;;;;;;;;11.50;99.90;;;;;;5035708;28;25155;-58
2021/01/10 11:34:30;;;;;;;;;;;11.50;99.90;;;;;;4995269;28;19921;-58
2021/01/10 11:36:58;;;;;;;;;;;11.50;99.90;;;;;;4998210;28;25072;-58
2021/01/10 11:39:25;;;;;;;436.33;155.80;;;11.50;99.90;;;;;;4995774;28;20427;-58
2021/01/10 11:41:53;;;;;;;420.93;159.20;;;11.40;99.90;;;;;;5012327;28;20571;-58
2021/01/10 11:44:22;;;;;;;415.42;150.45;;;11.50;99.90;;;;;;5011629;28;20416;-59
2021/01/10 11:46:50;;;;;;;422.55;162.45;;;11.50;99.90;;;;;;5014390;28;20939;-59
2021/01/10 11:49:18;;;;;;;394.87;138.83;;;11.50;99.90;;;;;;5035882;28;20443;-58
2021/01/10 11:51:45;;;;;;;;;;;11.50;99.90;;;;;;4992214;28;20435;-58
2021/01/10 11:54:13;;;;;;;;;;;11.60;99.90;;;;;;4994694;28;20446;-58
2021/01/10 11:56:40;;;;;;;419.48;145.52;;;11.70;99.90;;;;;;5011347;28;20478;-58
2021/01/10 11:59:07;;;;;;;;;;;11.70;99.90;;;;;;4995695;28;20480;-58
2021/01/10 12:01:35;;;;;;;399.40;124.37;;;11.70;99.90;;;;;;5024116;28;20557;-58
2021/01/10 12:04:04;;;;;;;399.07;133.40;;;11.60;99.90;;;;;;4979003;28;20424;-58
2021/01/10 12:06:30;;;;;;;;;;;11.70;99.90;;;;;;5008971;28;20435;-58
2021/01/10 12:08:58;;;;;;;396.45;124.90;;;11.70;99.90;;;;;;5023982;28;20446;-58
2021/01/10 12:11:25;;;;;;;;;;;11.60;99.90;;;;;;5016389;28;20437;-58
2021/01/10 12:13:52;;;;;;;;;;;11.60;99.90;;;;;;5012876;28;20415;-58
2021/01/10 12:16:20;;;;;;;394.05;130.35;;;11.60;99.90;;;;;;5023447;28;20516;-58
2021/01/10 12:18:47;;;;;;;394.35;140.95;;;11.60;99.90;;;;;;4975424;28;20460;-58
2021/01/10 12:21:14;;;;;;;;;;;11.60;99.90;;;;;;5020668;28;25091;-58
2021/01/10 12:23:42;;;;;;;;;;;11.60;99.90;;;;;;5009423;28;25107;-58
2021/01/10 12:26:09;;;;;;;;;;;11.60;99.90;;;;;;4996887;28;20666;-58
2021/01/10 12:28:36;;;;;;;;;;;11.60;99.90;;;;;;4995637;28;20462;-58
2021/01/10 12:31:03;;;;;;;394.27;124.57;;;11.60;99.90;;;;;;5021517;28;20423;-58
2021/01/10 12:33:30;;;;;;;;;;;11.50;99.90;;;;;;5012323;28;20426;-58
2021/01/10 12:35:57;;;;;;;364.45;109.20;;;11.60;99.90;;;;;;5006076;28;20991;-59
2021/01/10 12:38:24;;;;;;;377.00;108.00;;;11.60;99.90;;;;;;4989692;28;20430;-57
2021/01/10 12:40:51;;;;;;;390.00;113.63;;;11.50;99.90;;;;;;4990603;28;20433;-58
2021/01/10 12:43:18;;;;;;;374.67;106.40;;;11.60;99.90;;;;;;4985541;28;20442;-57
2021/01/10 12:45:47;;;;;;;345.55;100.45;;;11.60;99.90;;;;;;4979929;28;20443;-58
2021/01/10 12:48:15;;;;;;;;;;;11.50;99.90;;;;;;5008984;28;20469;-58
2021/01/10 12:50:42;;;;;;;;;;;11.50;99.90;;;;;;5021195;28;20442;-58
2021/01/10 12:53:09;;;;;;;370.45;99.32;;;11.50;99.90;;;;;;5022260;28;20489;-58
2021/01/10 12:55:36;;;;;;;;;;;11.50;99.90;;;;;;5032488;28;20435;-58
2021/01/10 12:58:03;;;;;;;353.07;97.60;;;11.50;99.90;;;;;;4999777;28;20454;-57
2021/01/10 13:00:31;;;;;;;351.47;95.10;;;11.50;99.90;;;;;;5040323;28;20419;-58
2021/01/10 13:02:59;;;;;;;380.05;117.22;;;11.50;99.90;;;;;;5006243;28;20434;-58
2021/01/10 13:05:26;;;;;;;364.17;106.95;;;11.50;99.90;;;;;;4978557;28;20419;-58
2021/01/10 13:07:53;;;;;;;357.77;97.72;;;11.50;99.90;;;;;;4995396;28;20426;-58
2021/01/10 13:10:20;;;;;;;;;;;11.50;99.90;;;;;;5006092;28;20549;-58